sensor_id;sensor_type;location;lat;lon;timestamp;P1;durP1;ratioP1;P2;durP2;ratioP2
65092;SDS011;52025;50.288;2.794;2023-02-21T05:33:44;2.67;;;1.55;;
65092;SDS011;52025;50.288;2.794;2023-02-21T05:36:09;2.50;;;1.20;;
65092;SDS011;52025;50.288;2.794;2023-02-21T05:38:43;2.78;;;1.55;;
65092;SDS011;52025;50.288;2.794;2023-02-21T05:41:08;3.78;;;1.65;;
65092;SDS011;52025;50.288;2.794;2023-02-21T05:43:33;3.55;;;1.70;;
65092;SDS011;52025;50.288;2.794;2023-02-21T05:45:58;6.95;;;3.08;;
65092;SDS011;52025;50.288;2.794;2023-02-21T05:48:24;2.95;;;1.55;;
65092;SDS011;52025;50.288;2.794;2023-02-21T05:50:49;2.80;;;1.20;;
65092;SDS011;52025;50.288;2.794;2023-02-21T05:53:14;2.35;;;1.20;;
65092;SDS011;52025;50.288;2.794;2023-02-21T05:55:39;1.77;;;1.02;;
65092;SDS011;52025;50.288;2.794;2023-02-21T05:58:05;2.53;;;1.30;;
65092;SDS011;52025;50.288;2.794;2023-02-21T06:00:30;1.83;;;1.00;;
65092;SDS011;52025;50.288;2.794;2023-02-21T06:02:55;2.30;;;1.40;;
65092;SDS011;52025;50.288;2.794;2023-02-21T06:05:21;2.85;;;1.50;;
65092;SDS011;52025;50.288;2.794;2023-02-21T06:07:47;2.95;;;1.50;;
65092;SDS011;52025;50.288;2.794;2023-02-21T06:10:12;3.05;;;1.60;;
65092;SDS011;52025;50.288;2.794;2023-02-21T06:12:38;3.10;;;1.67;;
65092;SDS011;52025;50.288;2.794;2023-02-21T06:15:03;5.53;;;3.08;;
65092;SDS011;52025;50.288;2.794;2023-02-21T06:17:35;3.92;;;1.83;;
65092;SDS011;52025;50.288;2.794;2023-02-21T06:20:00;3.38;;;1.50;;
65092;SDS011;52025;50.288;2.794;2023-02-21T06:22:26;3.00;;;1.80;;
65092;SDS011;52025;50.288;2.794;2023-02-21T06:24:51;3.22;;;1.60;;
65092;SDS011;52025;50.288;2.794;2023-02-21T06:27:16;2.85;;;1.52;;
65092;SDS011;52025;50.288;2.794;2023-02-21T06:29:41;3.42;;;1.80;;
65092;SDS011;52025;50.288;2.794;2023-02-21T06:32:07;2.95;;;1.60;;
65092;SDS011;52025;50.288;2.794;2023-02-21T06:34:33;2.40;;;1.35;;
65092;SDS011;52025;50.288;2.794;2023-02-21T06:36:58;2.65;;;1.40;;
65092;SDS011;52025;50.288;2.794;2023-02-21T06:39:23;2.47;;;1.38;;
65092;SDS011;52025;50.288;2.794;2023-02-21T06:41:49;2.10;;;1.17;;
65092;SDS011;52025;50.288;2.794;2023-02-21T06:44:15;3.40;;;1.33;;
65092;SDS011;52025;50.288;2.794;2023-02-21T06:46:41;2.28;;;1.20;;
65092;SDS011;52025;50.288;2.794;2023-02-21T06:49:06;2.15;;;1.27;;
65092;SDS011;52025;50.288;2.794;2023-02-21T06:51:39;2.28;;;1.30;;
65092;SDS011;52025;50.288;2.794;2023-02-21T06:54:04;3.47;;;1.85;;
65092;SDS011;52025;50.288;2.794;2023-02-21T06:56:30;3.25;;;1.52;;
65092;SDS011;52025;50.288;2.794;2023-02-21T06:58:55;3.10;;;1.58;;
65092;SDS011;52025;50.288;2.794;2023-02-21T07:01:21;2.40;;;1.40;;
65092;SDS011;52025;50.288;2.794;2023-02-21T07:03:47;2.33;;;1.20;;
65092;SDS011;52025;50.288;2.794;2023-02-21T07:06:13;3.17;;;1.60;;
65092;SDS011;52025;50.288;2.794;2023-02-21T07:08:38;2.10;;;1.30;;
65092;SDS011;52025;50.288;2.794;2023-02-21T07:11:04;3.13;;;1.50;;
65092;SDS011;52025;50.288;2.794;2023-02-21T07:13:30;3.13;;;1.60;;
65092;SDS011;52025;50.288;2.794;2023-02-21T07:15:55;4.43;;;1.77;;
65092;SDS011;52025;50.288;2.794;2023-02-21T07:18:20;3.40;;;1.67;;
65092;SDS011;52025;50.288;2.794;2023-02-21T07:20:45;4.03;;;2.22;;
65092;SDS011;52025;50.288;2.794;2023-02-21T07:23:11;2.53;;;1.40;;
65092;SDS011;52025;50.288;2.794;2023-02-21T07:25:36;2.78;;;1.52;;
65092;SDS011;52025;50.288;2.794;2023-02-21T07:28:01;3.30;;;1.63;;
65092;SDS011;52025;50.288;2.794;2023-02-21T07:30:28;3.70;;;1.40;;
65092;SDS011;52025;50.288;2.794;2023-02-21T07:32:53;2.08;;;1.40;;
65092;SDS011;52025;50.288;2.794;2023-02-21T07:35:18;2.78;;;1.50;;
65092;SDS011;52025;50.288;2.794;2023-02-21T07:37:44;2.85;;;1.50;;
65092;SDS011;52025;50.288;2.794;2023-02-21T07:40:09;3.10;;;1.50;;
65092;SDS011;52025;50.288;2.794;2023-02-21T07:42:34;3.22;;;1.60;;
65092;SDS011;52025;50.288;2.794;2023-02-21T07:45:00;2.28;;;1.25;;
65092;SDS011;52025;50.288;2.794;2023-02-21T07:47:26;2.97;;;1.42;;
65092;SDS011;52025;50.288;2.794;2023-02-21T07:49:51;2.80;;;1.48;;
65092;SDS011;52025;50.288;2.794;2023-02-21T07:52:18;2.67;;;1.48;;
65092;SDS011;52025;50.288;2.794;2023-02-21T07:54:44;2.90;;;1.52;;
65092;SDS011;52025;50.288;2.794;2023-02-21T07:57:09;2.45;;;1.20;;
65092;SDS011;52025;50.288;2.794;2023-02-21T07:59:34;2.20;;;1.30;;
65092;SDS011;52025;50.288;2.794;2023-02-21T08:02:00;2.53;;;1.30;;
65092;SDS011;52025;50.288;2.794;2023-02-21T08:04:26;2.72;;;1.52;;
65092;SDS011;52025;50.288;2.794;2023-02-21T08:06:51;3.33;;;1.48;;
65092;SDS011;52025;50.288;2.794;2023-02-21T08:09:22;2.97;;;1.50;;
65092;SDS011;52025;50.288;2.794;2023-02-21T08:11:47;2.70;;;1.73;;
65092;SDS011;52025;50.288;2.794;2023-02-21T08:14:12;2.78;;;1.45;;
65092;SDS011;52025;50.288;2.794;2023-02-21T08:16:37;3.03;;;1.50;;
65092;SDS011;52025;50.288;2.794;2023-02-21T08:19:03;2.88;;;1.55;;
65092;SDS011;52025;50.288;2.794;2023-02-21T08:21:29;4.95;;;2.47;;
65092;SDS011;52025;50.288;2.794;2023-02-21T08:23:55;3.63;;;1.85;;
65092;SDS011;52025;50.288;2.794;2023-02-21T08:26:21;3.13;;;1.60;;
65092;SDS011;52025;50.288;2.794;2023-02-21T08:28:46;2.55;;;1.35;;
65092;SDS011;52025;50.288;2.794;2023-02-21T08:31:12;7.35;;;3.50;;
65092;SDS011;52025;50.288;2.794;2023-02-21T08:33:37;4.88;;;2.25;;
65092;SDS011;52025;50.288;2.794;2023-02-21T08:36:12;3.08;;;1.60;;
65092;SDS011;52025;50.288;2.794;2023-02-21T08:44:50;3.95;;;1.98;;
65092;SDS011;52025;50.288;2.794;2023-02-21T08:47:15;3.20;;;1.73;;
65092;SDS011;52025;50.288;2.794;2023-02-21T08:49:47;2.90;;;1.67;;
65092;SDS011;52025;50.288;2.794;2023-02-21T08:52:16;3.35;;;1.73;;
65092;SDS011;52025;50.288;2.794;2023-02-21T08:54:42;3.75;;;1.98;;
65092;SDS011;52025;50.288;2.794;2023-02-21T08:57:10;3.17;;;1.67;;
65092;SDS011;52025;50.288;2.794;2023-02-21T08:59:40;3.58;;;1.83;;
65092;SDS011;52025;50.288;2.794;2023-02-21T09:02:08;2.92;;;1.58;;
65092;SDS011;52025;50.288;2.794;2023-02-21T09:04:36;2.67;;;1.38;;
65092;SDS011;52025;50.288;2.794;2023-02-21T09:07:02;3.05;;;1.65;;
65092;SDS011;52025;50.288;2.794;2023-02-21T09:09:27;3.33;;;1.85;;
65092;SDS011;52025;50.288;2.794;2023-02-21T09:11:53;3.70;;;1.75;;
65092;SDS011;52025;50.288;2.794;2023-02-21T09:14:18;4.20;;;2.00;;
65092;SDS011;52025;50.288;2.794;2023-02-21T09:16:43;4.03;;;2.30;;
65092;SDS011;52025;50.288;2.794;2023-02-21T09:19:09;3.53;;;1.95;;
65092;SDS011;52025;50.288;2.794;2023-02-21T09:21:34;3.75;;;1.83;;
65092;SDS011;52025;50.288;2.794;2023-02-21T09:24:00;3.05;;;1.90;;
65092;SDS011;52025;50.288;2.794;2023-02-21T09:26:27;4.50;;;2.20;;
65092;SDS011;52025;50.288;2.794;2023-02-21T09:28:56;4.25;;;2.22;;
65092;SDS011;52025;50.288;2.794;2023-02-21T09:31:21;3.35;;;1.80;;
65092;SDS011;52025;50.288;2.794;2023-02-21T09:33:46;3.58;;;2.00;;
65092;SDS011;52025;50.288;2.794;2023-02-21T09:36:12;4.30;;;1.98;;
65092;SDS011;52025;50.288;2.794;2023-02-21T09:38:37;4.55;;;2.60;;
65092;SDS011;52025;50.288;2.794;2023-02-21T09:41:06;5.80;;;2.97;;
65092;SDS011;52025;50.288;2.794;2023-02-21T09:43:37;8.18;;;3.67;;
65092;SDS011;52025;50.288;2.794;2023-02-21T09:46:07;7.60;;;3.05;;
65092;SDS011;52025;50.288;2.794;2023-02-21T09:48:33;5.15;;;2.67;;
65092;SDS011;52025;50.288;2.794;2023-02-21T09:51:01;7.55;;;3.63;;
65092;SDS011;52025;50.288;2.794;2023-02-21T09:53:28;6.47;;;3.70;;
65092;SDS011;52025;50.288;2.794;2023-02-21T09:56:10;5.78;;;3.30;;
65092;SDS011;52025;50.288;2.794;2023-02-21T09:58:38;5.15;;;2.50;;
65092;SDS011;52025;50.288;2.794;2023-02-21T10:01:08;7.25;;;3.72;;
65092;SDS011;52025;50.288;2.794;2023-02-21T10:08:45;4.85;;;2.45;;
65092;SDS011;52025;50.288;2.794;2023-02-21T10:13:41;5.60;;;3.20;;
65092;SDS011;52025;50.288;2.794;2023-02-21T10:16:11;4.80;;;2.78;;
65092;SDS011;52025;50.288;2.794;2023-02-21T10:18:45;5.35;;;2.92;;
65092;SDS011;52025;50.288;2.794;2023-02-21T10:21:24;3.92;;;2.40;;
65092;SDS011;52025;50.288;2.794;2023-02-21T10:23:53;5.05;;;2.65;;
65092;SDS011;52025;50.288;2.794;2023-02-21T10:26:28;9.30;;;4.47;;
65092;SDS011;52025;50.288;2.794;2023-02-21T10:28:53;6.35;;;3.72;;
65092;SDS011;52025;50.288;2.794;2023-02-21T10:31:26;6.97;;;3.60;;
65092;SDS011;52025;50.288;2.794;2023-02-21T10:33:54;5.57;;;2.70;;
65092;SDS011;52025;50.288;2.794;2023-02-21T10:36:20;5.65;;;3.35;;
65092;SDS011;52025;50.288;2.794;2023-02-21T10:39:32;5.53;;;2.80;;
65092;SDS011;52025;50.288;2.794;2023-02-21T10:41:33;5.55;;;2.80;;
65092;SDS011;52025;50.288;2.794;2023-02-21T10:44:00;7.88;;;4.35;;
65092;SDS011;52025;50.288;2.794;2023-02-21T10:46:29;7.22;;;3.85;;
65092;SDS011;52025;50.288;2.794;2023-02-21T10:51:39;5.93;;;3.40;;
65092;SDS011;52025;50.288;2.794;2023-02-21T10:56:42;7.70;;;3.17;;
65092;SDS011;52025;50.288;2.794;2023-02-21T10:59:08;5.10;;;2.65;;
65092;SDS011;52025;50.288;2.794;2023-02-21T11:04:21;5.43;;;2.92;;
65092;SDS011;52025;50.288;2.794;2023-02-21T11:06:51;5.85;;;3.22;;
65092;SDS011;52025;50.288;2.794;2023-02-21T11:09:40;7.00;;;3.65;;
65092;SDS011;52025;50.288;2.794;2023-02-21T11:15:04;6.75;;;3.42;;
65092;SDS011;52025;50.288;2.794;2023-02-21T11:17:28;8.27;;;3.60;;
65092;SDS011;52025;50.288;2.794;2023-02-21T11:19:54;7.40;;;3.67;;
65092;SDS011;52025;50.288;2.794;2023-02-21T11:22:22;7.20;;;4.03;;
65092;SDS011;52025;50.288;2.794;2023-02-21T11:24:52;6.53;;;3.40;;
65092;SDS011;52025;50.288;2.794;2023-02-21T11:27:19;7.22;;;3.60;;
65092;SDS011;52025;50.288;2.794;2023-02-21T11:29:46;7.32;;;3.78;;
65092;SDS011;52025;50.288;2.794;2023-02-21T11:32:12;5.57;;;3.03;;
65092;SDS011;52025;50.288;2.794;2023-02-21T11:34:43;5.88;;;3.60;;
65092;SDS011;52025;50.288;2.794;2023-02-21T11:37:12;5.93;;;3.30;;
65092;SDS011;52025;50.288;2.794;2023-02-21T11:39:37;6.93;;;3.47;;
65092;SDS011;52025;50.288;2.794;2023-02-21T11:42:04;6.95;;;3.72;;
65092;SDS011;52025;50.288;2.794;2023-02-21T11:44:47;6.93;;;3.72;;
65092;SDS011;52025;50.288;2.794;2023-02-21T11:47:34;6.57;;;3.78;;
65092;SDS011;52025;50.288;2.794;2023-02-21T11:50:07;7.25;;;4.07;;
65092;SDS011;52025;50.288;2.794;2023-02-21T11:54:59;7.55;;;4.25;;
65092;SDS011;52025;50.288;2.794;2023-02-21T12:02:49;8.77;;;4.78;;
65092;SDS011;52025;50.288;2.794;2023-02-21T12:10:42;10.10;;;5.70;;
65092;SDS011;52025;50.288;2.794;2023-02-21T12:18:51;9.52;;;4.90;;
65092;SDS011;52025;50.288;2.794;2023-02-21T12:21:32;9.70;;;5.20;;
65092;SDS011;52025;50.288;2.794;2023-02-21T12:24:35;9.38;;;5.70;;
65092;SDS011;52025;50.288;2.794;2023-02-21T12:26:57;8.13;;;5.05;;
65092;SDS011;52025;50.288;2.794;2023-02-21T12:37:09;7.32;;;4.63;;
65092;SDS011;52025;50.288;2.794;2023-02-21T12:39:45;7.60;;;4.57;;
65092;SDS011;52025;50.288;2.794;2023-02-21T12:47:22;7.32;;;4.53;;
65092;SDS011;52025;50.288;2.794;2023-02-21T12:52:17;9.33;;;5.13;;
65092;SDS011;52025;50.288;2.794;2023-02-21T12:54:44;9.07;;;5.80;;
65092;SDS011;52025;50.288;2.794;2023-02-21T12:57:18;9.65;;;6.07;;
65092;SDS011;52025;50.288;2.794;2023-02-21T13:02:33;10.82;;;5.43;;
65092;SDS011;52025;50.288;2.794;2023-02-21T13:05:03;8.77;;;5.77;;
65092;SDS011;52025;50.288;2.794;2023-02-21T13:07:32;8.57;;;5.82;;
65092;SDS011;52025;50.288;2.794;2023-02-21T13:12:29;10.32;;;6.45;;
65092;SDS011;52025;50.288;2.794;2023-02-21T13:14:57;10.40;;;6.50;;
65092;SDS011;52025;50.288;2.794;2023-02-21T13:17:23;9.15;;;6.07;;
65092;SDS011;52025;50.288;2.794;2023-02-21T13:20:13;10.93;;;6.85;;
65092;SDS011;52025;50.288;2.794;2023-02-21T13:30:44;13.93;;;8.50;;
65092;SDS011;52025;50.288;2.794;2023-02-21T13:35:48;12.02;;;8.13;;
65092;SDS011;52025;50.288;2.794;2023-02-21T13:38:15;12.80;;;7.63;;
65092;SDS011;52025;50.288;2.794;2023-02-21T13:43:18;15.00;;;8.98;;
65092;SDS011;52025;50.288;2.794;2023-02-21T13:45:45;12.65;;;8.70;;
65092;SDS011;52025;50.288;2.794;2023-02-21T13:50:46;13.50;;;8.48;;
65092;SDS011;52025;50.288;2.794;2023-02-21T13:55:40;16.80;;;10.27;;
65092;SDS011;52025;50.288;2.794;2023-02-21T13:58:30;14.60;;;9.70;;
65092;SDS011;52025;50.288;2.794;2023-02-21T14:00:55;17.23;;;9.98;;
65092;SDS011;52025;50.288;2.794;2023-02-21T14:08:27;14.57;;;9.48;;
65092;SDS011;52025;50.288;2.794;2023-02-21T14:10:54;15.38;;;9.80;;
65092;SDS011;52025;50.288;2.794;2023-02-21T14:15:49;15.73;;;8.85;;
65092;SDS011;52025;50.288;2.794;2023-02-21T14:18:24;14.75;;;8.82;;
65092;SDS011;52025;50.288;2.794;2023-02-21T14:20:50;13.45;;;9.02;;
65092;SDS011;52025;50.288;2.794;2023-02-21T14:23:16;16.98;;;10.45;;
65092;SDS011;52025;50.288;2.794;2023-02-21T14:25:52;16.50;;;9.20;;
65092;SDS011;52025;50.288;2.794;2023-02-21T14:31:02;15.35;;;9.65;;
65092;SDS011;52025;50.288;2.794;2023-02-21T14:33:27;15.80;;;9.93;;
65092;SDS011;52025;50.288;2.794;2023-02-21T14:36:03;15.63;;;9.93;;
65092;SDS011;52025;50.288;2.794;2023-02-21T14:38:29;18.95;;;9.35;;
65092;SDS011;52025;50.288;2.794;2023-02-21T14:46:50;15.20;;;9.43;;
65092;SDS011;52025;50.288;2.794;2023-02-21T14:58:07;18.00;;;9.38;;
65092;SDS011;52025;50.288;2.794;2023-02-21T15:07:38;15.95;;;10.07;;
65092;SDS011;52025;50.288;2.794;2023-02-21T15:09:42;16.42;;;10.40;;
65092;SDS011;52025;50.288;2.794;2023-02-21T15:12:15;15.55;;;9.00;;
65092;SDS011;52025;50.288;2.794;2023-02-21T15:14:51;18.70;;;9.73;;
65092;SDS011;52025;50.288;2.794;2023-02-21T15:17:19;14.90;;;9.10;;
65092;SDS011;52025;50.288;2.794;2023-02-21T15:19:45;16.60;;;10.57;;
65092;SDS011;52025;50.288;2.794;2023-02-21T15:22:23;14.95;;;9.30;;
65092;SDS011;52025;50.288;2.794;2023-02-21T15:27:33;16.63;;;9.73;;
65092;SDS011;52025;50.288;2.794;2023-02-21T15:33:27;15.90;;;9.63;;
65092;SDS011;52025;50.288;2.794;2023-02-21T15:35:55;17.92;;;10.07;;
65092;SDS011;52025;50.288;2.794;2023-02-21T15:38:24;18.85;;;10.25;;
65092;SDS011;52025;50.288;2.794;2023-02-21T15:40:52;20.35;;;10.52;;
65092;SDS011;52025;50.288;2.794;2023-02-21T15:43:24;20.58;;;10.80;;
65092;SDS011;52025;50.288;2.794;2023-02-21T15:45:51;17.27;;;10.90;;
65092;SDS011;52025;50.288;2.794;2023-02-21T15:48:17;20.73;;;10.90;;
65092;SDS011;52025;50.288;2.794;2023-02-21T15:50:43;21.15;;;11.60;;
65092;SDS011;52025;50.288;2.794;2023-02-21T15:55:36;18.45;;;10.95;;
65092;SDS011;52025;50.288;2.794;2023-02-21T16:00:30;21.45;;;11.95;;
65092;SDS011;52025;50.288;2.794;2023-02-21T16:05:40;20.83;;;12.50;;
65092;SDS011;52025;50.288;2.794;2023-02-21T16:08:05;20.80;;;12.50;;
65092;SDS011;52025;50.288;2.794;2023-02-21T16:10:33;20.30;;;12.60;;
65092;SDS011;52025;50.288;2.794;2023-02-21T16:12:59;20.00;;;12.23;;
65092;SDS011;52025;50.288;2.794;2023-02-21T16:17:51;20.48;;;12.05;;
65092;SDS011;52025;50.288;2.794;2023-02-21T16:20:18;20.50;;;11.65;;
65092;SDS011;52025;50.288;2.794;2023-02-21T16:22:45;26.88;;;13.30;;
65092;SDS011;52025;50.288;2.794;2023-02-21T16:25:14;23.00;;;12.50;;
65092;SDS011;52025;50.288;2.794;2023-02-21T16:27:43;22.05;;;11.93;;
65092;SDS011;52025;50.288;2.794;2023-02-21T16:30:16;21.90;;;11.90;;
65092;SDS011;52025;50.288;2.794;2023-02-21T16:32:42;24.25;;;13.75;;
65092;SDS011;52025;50.288;2.794;2023-02-21T16:35:12;19.52;;;12.25;;
65092;SDS011;52025;50.288;2.794;2023-02-21T16:37:38;21.83;;;12.00;;
65092;SDS011;52025;50.288;2.794;2023-02-21T16:40:23;24.63;;;14.02;;
65092;SDS011;52025;50.288;2.794;2023-02-21T16:42:51;26.23;;;14.15;;
65092;SDS011;52025;50.288;2.794;2023-02-21T16:45:17;24.40;;;14.75;;
65092;SDS011;52025;50.288;2.794;2023-02-21T16:47:43;21.23;;;12.88;;
65092;SDS011;52025;50.288;2.794;2023-02-21T16:50:35;27.05;;;14.02;;
65092;SDS011;52025;50.288;2.794;2023-02-21T16:53:00;23.45;;;13.00;;
65092;SDS011;52025;50.288;2.794;2023-02-21T16:55:47;20.23;;;12.48;;
65092;SDS011;52025;50.288;2.794;2023-02-21T17:00:48;22.20;;;13.70;;
65092;SDS011;52025;50.288;2.794;2023-02-21T17:03:13;20.73;;;12.65;;
65092;SDS011;52025;50.288;2.794;2023-02-21T17:05:39;24.52;;;13.32;;
65092;SDS011;52025;50.288;2.794;2023-02-21T17:08:04;22.80;;;13.85;;
65092;SDS011;52025;50.288;2.794;2023-02-21T17:13:20;22.27;;;12.52;;
65092;SDS011;52025;50.288;2.794;2023-02-21T17:15:45;22.42;;;12.80;;
65092;SDS011;52025;50.288;2.794;2023-02-21T17:18:11;18.98;;;11.65;;
65092;SDS011;52025;50.288;2.794;2023-02-21T17:20:36;20.98;;;11.35;;
65092;SDS011;52025;50.288;2.794;2023-02-21T17:23:02;21.48;;;12.88;;
65092;SDS011;52025;50.288;2.794;2023-02-21T17:25:27;20.80;;;12.90;;
65092;SDS011;52025;50.288;2.794;2023-02-21T17:27:53;20.48;;;12.50;;
65092;SDS011;52025;50.288;2.794;2023-02-21T17:30:22;23.23;;;13.32;;
65092;SDS011;52025;50.288;2.794;2023-02-21T17:32:48;23.25;;;14.18;;
65092;SDS011;52025;50.288;2.794;2023-02-21T17:35:14;25.50;;;15.10;;
65092;SDS011;52025;50.288;2.794;2023-02-21T17:37:40;29.55;;;16.77;;
65092;SDS011;52025;50.288;2.794;2023-02-21T17:40:06;26.98;;;15.95;;
65092;SDS011;52025;50.288;2.794;2023-02-21T17:42:31;29.13;;;16.38;;
65092;SDS011;52025;50.288;2.794;2023-02-21T17:44:56;27.05;;;15.07;;
65092;SDS011;52025;50.288;2.794;2023-02-21T17:47:22;22.30;;;13.10;;
65092;SDS011;52025;50.288;2.794;2023-02-21T17:49:48;26.38;;;13.95;;
65092;SDS011;52025;50.288;2.794;2023-02-21T17:52:14;21.27;;;12.93;;
65092;SDS011;52025;50.288;2.794;2023-02-21T17:54:40;21.42;;;12.40;;
65092;SDS011;52025;50.288;2.794;2023-02-21T17:57:08;23.90;;;13.30;;
65092;SDS011;52025;50.288;2.794;2023-02-21T17:59:34;44.83;;;22.08;;
65092;SDS011;52025;50.288;2.794;2023-02-21T18:02:00;164.43;;;60.05;;
65092;SDS011;52025;50.288;2.794;2023-02-21T18:04:25;141.15;;;59.97;;
65092;SDS011;52025;50.288;2.794;2023-02-21T18:06:50;96.88;;;48.88;;
65092;SDS011;52025;50.288;2.794;2023-02-21T18:09:16;48.25;;;25.38;;
65092;SDS011;52025;50.288;2.794;2023-02-21T18:11:46;32.67;;;17.05;;
65092;SDS011;52025;50.288;2.794;2023-02-21T18:14:11;27.38;;;15.85;;
65092;SDS011;52025;50.288;2.794;2023-02-21T18:16:36;22.70;;;13.98;;
65092;SDS011;52025;50.288;2.794;2023-02-21T18:19:02;23.20;;;13.07;;
65092;SDS011;52025;50.288;2.794;2023-02-21T18:21:30;21.52;;;13.48;;
65092;SDS011;52025;50.288;2.794;2023-02-21T18:23:55;22.13;;;13.43;;
65092;SDS011;52025;50.288;2.794;2023-02-21T18:26:23;20.15;;;12.70;;
65092;SDS011;52025;50.288;2.794;2023-02-21T18:28:49;20.70;;;13.10;;
65092;SDS011;52025;50.288;2.794;2023-02-21T18:31:17;24.35;;;14.00;;
65092;SDS011;52025;50.288;2.794;2023-02-21T18:33:43;23.08;;;12.77;;
65092;SDS011;52025;50.288;2.794;2023-02-21T18:36:08;22.80;;;12.93;;
65092;SDS011;52025;50.288;2.794;2023-02-21T18:38:34;22.95;;;13.52;;
65092;SDS011;52025;50.288;2.794;2023-02-21T18:41:00;26.67;;;14.82;;
65092;SDS011;52025;50.288;2.794;2023-02-21T18:43:27;22.88;;;13.45;;
65092;SDS011;52025;50.288;2.794;2023-02-21T18:45:53;22.77;;;13.55;;
65092;SDS011;52025;50.288;2.794;2023-02-21T18:48:19;24.67;;;14.32;;
65092;SDS011;52025;50.288;2.794;2023-02-21T18:50:51;25.10;;;14.70;;
65092;SDS011;52025;50.288;2.794;2023-02-21T18:53:16;22.30;;;13.65;;
65092;SDS011;52025;50.288;2.794;2023-02-21T18:55:42;25.23;;;14.25;;
65092;SDS011;52025;50.288;2.794;2023-02-21T19:07:27;24.05;;;15.55;;
65092;SDS011;52025;50.288;2.794;2023-02-21T19:09:52;24.13;;;15.57;;
65092;SDS011;52025;50.288;2.794;2023-02-21T19:12:19;28.10;;;16.35;;
65092;SDS011;52025;50.288;2.794;2023-02-21T19:14:44;24.13;;;15.30;;
65092;SDS011;52025;50.288;2.794;2023-02-21T19:17:09;27.90;;;16.20;;
65092;SDS011;52025;50.288;2.794;2023-02-21T19:19:35;25.50;;;15.85;;
65092;SDS011;52025;50.288;2.794;2023-02-21T19:22:06;28.80;;;16.20;;
65092;SDS011;52025;50.288;2.794;2023-02-21T19:24:34;23.80;;;15.25;;
65092;SDS011;52025;50.288;2.794;2023-02-21T19:27:00;29.13;;;16.52;;
65092;SDS011;52025;50.288;2.794;2023-02-21T19:29:31;26.05;;;16.67;;
65092;SDS011;52025;50.288;2.794;2023-02-21T19:31:59;25.88;;;16.25;;
65092;SDS011;52025;50.288;2.794;2023-02-21T19:34:24;29.80;;;17.52;;
65092;SDS011;52025;50.288;2.794;2023-02-21T19:39:25;27.58;;;15.00;;
65092;SDS011;52025;50.288;2.794;2023-02-21T19:41:50;25.17;;;15.77;;
65092;SDS011;52025;50.288;2.794;2023-02-21T19:44:15;24.75;;;15.40;;
65092;SDS011;52025;50.288;2.794;2023-02-21T19:46:41;25.40;;;16.00;;
65092;SDS011;52025;50.288;2.794;2023-02-21T19:58:55;28.83;;;17.60;;
65092;SDS011;52025;50.288;2.794;2023-02-21T20:01:22;26.08;;;16.48;;
65092;SDS011;52025;50.288;2.794;2023-02-21T20:03:49;31.73;;;18.55;;
65092;SDS011;52025;50.288;2.794;2023-02-21T20:06:17;34.30;;;19.45;;
65092;SDS011;52025;50.288;2.794;2023-02-21T20:08:42;25.95;;;17.77;;
65092;SDS011;52025;50.288;2.794;2023-02-21T20:11:14;31.20;;;16.65;;
65092;SDS011;52025;50.288;2.794;2023-02-21T20:13:49;28.92;;;17.38;;
65092;SDS011;52025;50.288;2.794;2023-02-21T20:16:14;31.17;;;17.95;;
65092;SDS011;52025;50.288;2.794;2023-02-21T20:18:49;34.33;;;20.20;;
65092;SDS011;52025;50.288;2.794;2023-02-21T20:24:32;34.67;;;20.58;;
65092;SDS011;52025;50.288;2.794;2023-02-21T20:26:57;34.45;;;20.48;;
65092;SDS011;52025;50.288;2.794;2023-02-21T20:29:44;34.28;;;20.60;;
65092;SDS011;52025;50.288;2.794;2023-02-21T20:32:17;33.75;;;20.25;;
65092;SDS011;52025;50.288;2.794;2023-02-21T20:34:52;34.15;;;20.73;;
65092;SDS011;52025;50.288;2.794;2023-02-21T20:37:36;37.20;;;21.35;;
65092;SDS011;52025;50.288;2.794;2023-02-21T20:40:14;33.03;;;20.42;;
65092;SDS011;52025;50.288;2.794;2023-02-21T20:45:44;39.67;;;22.42;;
65092;SDS011;52025;50.288;2.794;2023-02-21T20:48:10;35.03;;;21.05;;
65092;SDS011;52025;50.288;2.794;2023-02-21T20:50:36;34.05;;;21.35;;
65092;SDS011;52025;50.288;2.794;2023-02-21T20:53:01;34.83;;;20.60;;
65092;SDS011;52025;50.288;2.794;2023-02-21T20:55:27;33.17;;;20.85;;
65092;SDS011;52025;50.288;2.794;2023-02-21T20:57:52;32.33;;;19.73;;
65092;SDS011;52025;50.288;2.794;2023-02-21T21:00:18;33.22;;;21.17;;
65092;SDS011;52025;50.288;2.794;2023-02-21T21:03:03;29.55;;;19.83;;
65092;SDS011;52025;50.288;2.794;2023-02-21T21:11:21;31.83;;;19.42;;
65092;SDS011;52025;50.288;2.794;2023-02-21T21:17:18;32.00;;;18.90;;
65092;SDS011;52025;50.288;2.794;2023-02-21T21:19:56;32.05;;;20.50;;
65092;SDS011;52025;50.288;2.794;2023-02-21T21:22:23;30.77;;;20.08;;
65092;SDS011;52025;50.288;2.794;2023-02-21T21:24:49;30.25;;;19.25;;
65092;SDS011;52025;50.288;2.794;2023-02-21T21:27:14;33.63;;;20.35;;
65092;SDS011;52025;50.288;2.794;2023-02-21T21:29:40;35.38;;;21.33;;
65092;SDS011;52025;50.288;2.794;2023-02-21T21:32:07;33.60;;;20.52;;
65092;SDS011;52025;50.288;2.794;2023-02-21T21:34:33;32.72;;;20.83;;
65092;SDS011;52025;50.288;2.794;2023-02-21T21:37:00;34.03;;;19.58;;
65092;SDS011;52025;50.288;2.794;2023-02-21T21:39:25;31.23;;;19.42;;
65092;SDS011;52025;50.288;2.794;2023-02-21T21:41:55;34.20;;;21.83;;
65092;SDS011;52025;50.288;2.794;2023-02-21T21:44:22;34.50;;;21.80;;
65092;SDS011;52025;50.288;2.794;2023-02-21T21:46:51;33.13;;;21.42;;
65092;SDS011;52025;50.288;2.794;2023-02-21T21:49:19;38.83;;;21.20;;
65092;SDS011;52025;50.288;2.794;2023-02-21T21:51:47;34.42;;;21.40;;
65092;SDS011;52025;50.288;2.794;2023-02-21T21:54:14;35.28;;;21.20;;
65092;SDS011;52025;50.288;2.794;2023-02-21T21:56:39;34.90;;;22.52;;
65092;SDS011;52025;50.288;2.794;2023-02-21T21:59:06;36.20;;;22.48;;
65092;SDS011;52025;50.288;2.794;2023-02-21T22:01:33;33.28;;;21.40;;
65092;SDS011;52025;50.288;2.794;2023-02-21T22:03:58;34.88;;;22.33;;
65092;SDS011;52025;50.288;2.794;2023-02-21T22:06:24;39.97;;;23.05;;
65092;SDS011;52025;50.288;2.794;2023-02-21T22:08:51;35.13;;;21.95;;
65092;SDS011;52025;50.288;2.794;2023-02-21T22:11:17;38.63;;;23.55;;
65092;SDS011;52025;50.288;2.794;2023-02-21T22:13:42;34.05;;;21.67;;
65092;SDS011;52025;50.288;2.794;2023-02-21T22:16:07;32.88;;;21.95;;
65092;SDS011;52025;50.288;2.794;2023-02-21T22:18:33;34.20;;;20.48;;
65092;SDS011;52025;50.288;2.794;2023-02-21T22:20:59;35.53;;;21.88;;
65092;SDS011;52025;50.288;2.794;2023-02-21T22:23:24;34.30;;;22.10;;
65092;SDS011;52025;50.288;2.794;2023-02-21T22:25:49;32.55;;;19.88;;
65092;SDS011;52025;50.288;2.794;2023-02-21T22:28:15;34.17;;;20.50;;
65092;SDS011;52025;50.288;2.794;2023-02-21T22:30:40;32.17;;;19.95;;
65092;SDS011;52025;50.288;2.794;2023-02-21T22:33:06;36.20;;;21.13;;
65092;SDS011;52025;50.288;2.794;2023-02-21T22:35:31;29.67;;;18.65;;
65092;SDS011;52025;50.288;2.794;2023-02-21T22:37:57;26.48;;;16.60;;
65092;SDS011;52025;50.288;2.794;2023-02-21T22:40:26;27.20;;;15.73;;
65092;SDS011;52025;50.288;2.794;2023-02-21T22:42:58;23.77;;;15.77;;
65092;SDS011;52025;50.288;2.794;2023-02-21T22:45:24;22.88;;;14.15;;
65092;SDS011;52025;50.288;2.794;2023-02-21T22:47:50;23.65;;;14.65;;
65092;SDS011;52025;50.288;2.794;2023-02-21T22:50:16;22.77;;;15.07;;
65092;SDS011;52025;50.288;2.794;2023-02-21T22:52:57;24.42;;;15.68;;
65092;SDS011;52025;50.288;2.794;2023-02-21T22:55:23;20.23;;;13.43;;
65092;SDS011;52025;50.288;2.794;2023-02-21T22:57:53;23.10;;;15.10;;
